sensor_id;sensor_type;location;lat;lon;timestamp;P1;durP1;ratioP1;P2;durP2;ratioP2
18172;SDS011;9211;48.818;9.312;2023-04-24T00:00:14;2.95;;;0.90;;
18172;SDS011;9211;48.818;9.312;2023-04-24T00:02:43;2.08;;;0.60;;
18172;SDS011;9211;48.818;9.312;2023-04-24T00:05:12;1.70;;;0.60;;
18172;SDS011;9211;48.818;9.312;2023-04-24T00:07:41;3.70;;;0.80;;
18172;SDS011;9211;48.818;9.312;2023-04-24T00:10:09;2.17;;;0.63;;
18172;SDS011;9211;48.818;9.312;2023-04-24T00:12:36;2.88;;;0.60;;
18172;SDS011;9211;48.818;9.312;2023-04-24T00:15:03;1.05;;;0.55;;
18172;SDS011;9211;48.818;9.312;2023-04-24T00:17:31;1.60;;;0.57;;
18172;SDS011;9211;48.818;9.312;2023-04-24T00:19:58;2.53;;;0.50;;
18172;SDS011;9211;48.818;9.312;2023-04-24T00:22:26;2.67;;;0.57;;
18172;SDS011;9211;48.818;9.312;2023-04-24T00:24:55;2.60;;;0.68;;
18172;SDS011;9211;48.818;9.312;2023-04-24T00:27:22;1.80;;;0.60;;
18172;SDS011;9211;48.818;9.312;2023-04-24T00:29:49;4.60;;;0.60;;
18172;SDS011;9211;48.818;9.312;2023-04-24T00:32:16;1.87;;;0.70;;
18172;SDS011;9211;48.818;9.312;2023-04-24T00:34:43;1.55;;;0.60;;
18172;SDS011;9211;48.818;9.312;2023-04-24T00:37:10;1.27;;;0.50;;
18172;SDS011;9211;48.818;9.312;2023-04-24T00:39:37;1.67;;;0.55;;
18172;SDS011;9211;48.818;9.312;2023-04-24T00:42:05;0.90;;;0.50;;
18172;SDS011;9211;48.818;9.312;2023-04-24T00:44:32;2.20;;;0.55;;
18172;SDS011;9211;48.818;9.312;2023-04-24T00:47:00;1.92;;;0.60;;
18172;SDS011;9211;48.818;9.312;2023-04-24T00:49:27;1.85;;;0.68;;
18172;SDS011;9211;48.818;9.312;2023-04-24T00:51:54;2.30;;;0.65;;
18172;SDS011;9211;48.818;9.312;2023-04-24T00:54:21;2.60;;;0.60;;
18172;SDS011;9211;48.818;9.312;2023-04-24T00:56:50;3.20;;;0.70;;
18172;SDS011;9211;48.818;9.312;2023-04-24T00:59:18;3.65;;;0.60;;
18172;SDS011;9211;48.818;9.312;2023-04-24T01:01:46;1.48;;;0.45;;
18172;SDS011;9211;48.818;9.312;2023-04-24T01:04:13;2.70;;;0.50;;
18172;SDS011;9211;48.818;9.312;2023-04-24T01:06:40;1.38;;;0.63;;
18172;SDS011;9211;48.818;9.312;2023-04-24T01:09:10;1.10;;;0.40;;
18172;SDS011;9211;48.818;9.312;2023-04-24T01:11:38;2.58;;;0.50;;
18172;SDS011;9211;48.818;9.312;2023-04-24T01:14:08;2.17;;;0.60;;
18172;SDS011;9211;48.818;9.312;2023-04-24T01:16:37;2.42;;;0.50;;
18172;SDS011;9211;48.818;9.312;2023-04-24T01:19:04;1.27;;;0.50;;
18172;SDS011;9211;48.818;9.312;2023-04-24T01:21:32;2.77;;;0.60;;
18172;SDS011;9211;48.818;9.312;2023-04-24T01:24:04;1.33;;;0.60;;
18172;SDS011;9211;48.818;9.312;2023-04-24T01:26:33;1.15;;;0.60;;
18172;SDS011;9211;48.818;9.312;2023-04-24T01:29:00;1.98;;;0.70;;
18172;SDS011;9211;48.818;9.312;2023-04-24T01:31:28;1.63;;;0.60;;
18172;SDS011;9211;48.818;9.312;2023-04-24T01:33:55;2.60;;;0.63;;
18172;SDS011;9211;48.818;9.312;2023-04-24T01:36:23;1.00;;;0.55;;
18172;SDS011;9211;48.818;9.312;2023-04-24T01:38:52;3.60;;;0.70;;
18172;SDS011;9211;48.818;9.312;2023-04-24T01:41:20;1.83;;;0.60;;
18172;SDS011;9211;48.818;9.312;2023-04-24T01:43:50;1.25;;;0.50;;
18172;SDS011;9211;48.818;9.312;2023-04-24T01:46:18;1.55;;;0.60;;
18172;SDS011;9211;48.818;9.312;2023-04-24T01:48:46;2.38;;;0.60;;
18172;SDS011;9211;48.818;9.312;2023-04-24T01:51:13;2.55;;;0.65;;
18172;SDS011;9211;48.818;9.312;2023-04-24T01:53:40;2.65;;;0.73;;
18172;SDS011;9211;48.818;9.312;2023-04-24T01:56:08;1.83;;;0.60;;
18172;SDS011;9211;48.818;9.312;2023-04-24T01:58:36;0.97;;;0.50;;
18172;SDS011;9211;48.818;9.312;2023-04-24T02:03:55;1.42;;;0.50;;
18172;SDS011;9211;48.818;9.312;2023-04-24T02:06:22;2.42;;;0.60;;
18172;SDS011;9211;48.818;9.312;2023-04-24T02:08:49;2.38;;;0.60;;
18172;SDS011;9211;48.818;9.312;2023-04-24T02:11:16;1.95;;;0.60;;
18172;SDS011;9211;48.818;9.312;2023-04-24T02:13:45;1.50;;;0.50;;
18172;SDS011;9211;48.818;9.312;2023-04-24T02:16:12;2.05;;;0.70;;
18172;SDS011;9211;48.818;9.312;2023-04-24T02:18:39;2.28;;;0.70;;
18172;SDS011;9211;48.818;9.312;2023-04-24T02:21:06;2.60;;;0.75;;
18172;SDS011;9211;48.818;9.312;2023-04-24T02:23:34;1.80;;;0.60;;
18172;SDS011;9211;48.818;9.312;2023-04-24T02:26:01;1.90;;;0.65;;
18172;SDS011;9211;48.818;9.312;2023-04-24T02:28:28;2.30;;;0.70;;
18172;SDS011;9211;48.818;9.312;2023-04-24T02:30:56;3.47;;;0.70;;
18172;SDS011;9211;48.818;9.312;2023-04-24T02:33:23;2.03;;;0.70;;
18172;SDS011;9211;48.818;9.312;2023-04-24T02:35:50;1.77;;;0.60;;
18172;SDS011;9211;48.818;9.312;2023-04-24T02:38:17;1.85;;;0.60;;
18172;SDS011;9211;48.818;9.312;2023-04-24T02:40:44;1.65;;;0.65;;
18172;SDS011;9211;48.818;9.312;2023-04-24T02:43:11;3.53;;;0.55;;
18172;SDS011;9211;48.818;9.312;2023-04-24T02:45:38;2.05;;;0.60;;
18172;SDS011;9211;48.818;9.312;2023-04-24T02:48:07;2.30;;;0.70;;
18172;SDS011;9211;48.818;9.312;2023-04-24T02:50:34;2.03;;;0.77;;
18172;SDS011;9211;48.818;9.312;2023-04-24T02:53:01;2.10;;;0.70;;
18172;SDS011;9211;48.818;9.312;2023-04-24T02:55:28;2.67;;;0.65;;
18172;SDS011;9211;48.818;9.312;2023-04-24T02:57:55;2.58;;;0.60;;
18172;SDS011;9211;48.818;9.312;2023-04-24T03:00:22;2.45;;;0.70;;
18172;SDS011;9211;48.818;9.312;2023-04-24T03:02:49;3.35;;;0.70;;
18172;SDS011;9211;48.818;9.312;2023-04-24T03:05:17;2.42;;;0.80;;
18172;SDS011;9211;48.818;9.312;2023-04-24T03:07:44;3.25;;;0.70;;
18172;SDS011;9211;48.818;9.312;2023-04-24T03:10:11;3.70;;;0.70;;
18172;SDS011;9211;48.818;9.312;2023-04-24T03:12:38;3.25;;;0.80;;
18172;SDS011;9211;48.818;9.312;2023-04-24T03:15:06;2.00;;;0.63;;
18172;SDS011;9211;48.818;9.312;2023-04-24T03:17:36;1.92;;;0.60;;
18172;SDS011;9211;48.818;9.312;2023-04-24T03:20:03;1.45;;;0.73;;
18172;SDS011;9211;48.818;9.312;2023-04-24T03:22:33;2.93;;;0.90;;
18172;SDS011;9211;48.818;9.312;2023-04-24T03:25:02;1.97;;;0.77;;
18172;SDS011;9211;48.818;9.312;2023-04-24T03:27:30;2.60;;;0.70;;
18172;SDS011;9211;48.818;9.312;2023-04-24T03:30:04;1.80;;;0.75;;
18172;SDS011;9211;48.818;9.312;2023-04-24T03:32:43;3.92;;;0.80;;
18172;SDS011;9211;48.818;9.312;2023-04-24T03:35:13;1.85;;;0.70;;
18172;SDS011;9211;48.818;9.312;2023-04-24T03:37:42;3.20;;;0.70;;
18172;SDS011;9211;48.818;9.312;2023-04-24T03:40:32;4.60;;;0.90;;
18172;SDS011;9211;48.818;9.312;2023-04-24T03:43:00;2.67;;;0.70;;
18172;SDS011;9211;48.818;9.312;2023-04-24T03:45:28;2.60;;;0.63;;
18172;SDS011;9211;48.818;9.312;2023-04-24T03:47:56;3.25;;;0.80;;
18172;SDS011;9211;48.818;9.312;2023-04-24T03:50:23;1.23;;;0.65;;
18172;SDS011;9211;48.818;9.312;2023-04-24T03:52:53;3.30;;;0.80;;
18172;SDS011;9211;48.818;9.312;2023-04-24T03:55:32;2.80;;;0.60;;
18172;SDS011;9211;48.818;9.312;2023-04-24T03:57:59;3.60;;;0.90;;
18172;SDS011;9211;48.818;9.312;2023-04-24T04:00:26;2.90;;;0.70;;
18172;SDS011;9211;48.818;9.312;2023-04-24T04:03:13;1.80;;;0.68;;
18172;SDS011;9211;48.818;9.312;2023-04-24T04:05:40;2.80;;;0.80;;
18172;SDS011;9211;48.818;9.312;2023-04-24T04:08:09;1.98;;;0.55;;
18172;SDS011;9211;48.818;9.312;2023-04-24T04:10:36;4.15;;;0.80;;
18172;SDS011;9211;48.818;9.312;2023-04-24T04:13:04;1.77;;;0.70;;
18172;SDS011;9211;48.818;9.312;2023-04-24T04:15:31;1.35;;;0.60;;
18172;SDS011;9211;48.818;9.312;2023-04-24T04:17:58;2.22;;;0.60;;
18172;SDS011;9211;48.818;9.312;2023-04-24T04:20:25;2.88;;;0.65;;
18172;SDS011;9211;48.818;9.312;2023-04-24T04:22:53;2.67;;;0.60;;
18172;SDS011;9211;48.818;9.312;2023-04-24T04:25:31;2.70;;;0.80;;
18172;SDS011;9211;48.818;9.312;2023-04-24T04:27:58;4.05;;;0.60;;
18172;SDS011;9211;48.818;9.312;2023-04-24T04:30:26;3.40;;;0.50;;
18172;SDS011;9211;48.818;9.312;2023-04-24T04:33:01;1.73;;;0.57;;
18172;SDS011;9211;48.818;9.312;2023-04-24T04:35:28;1.90;;;0.70;;
18172;SDS011;9211;48.818;9.312;2023-04-24T04:37:55;1.90;;;0.60;;
18172;SDS011;9211;48.818;9.312;2023-04-24T04:40:40;1.67;;;0.80;;
18172;SDS011;9211;48.818;9.312;2023-04-24T04:43:07;2.07;;;0.80;;
18172;SDS011;9211;48.818;9.312;2023-04-24T04:45:43;2.83;;;0.73;;
18172;SDS011;9211;48.818;9.312;2023-04-24T04:48:36;1.50;;;0.70;;
18172;SDS011;9211;48.818;9.312;2023-04-24T04:51:06;2.70;;;0.70;;
18172;SDS011;9211;48.818;9.312;2023-04-24T04:53:33;2.38;;;0.70;;
18172;SDS011;9211;48.818;9.312;2023-04-24T04:56:02;2.22;;;0.80;;
18172;SDS011;9211;48.818;9.312;2023-04-24T04:58:36;2.05;;;0.88;;
18172;SDS011;9211;48.818;9.312;2023-04-24T05:01:06;1.25;;;0.85;;
18172;SDS011;9211;48.818;9.312;2023-04-24T05:03:42;1.70;;;0.90;;
18172;SDS011;9211;48.818;9.312;2023-04-24T05:06:12;2.35;;;0.90;;
18172;SDS011;9211;48.818;9.312;2023-04-24T05:08:39;1.10;;;0.80;;
18172;SDS011;9211;48.818;9.312;2023-04-24T05:11:25;2.05;;;0.98;;
18172;SDS011;9211;48.818;9.312;2023-04-24T05:13:54;2.35;;;1.00;;
18172;SDS011;9211;48.818;9.312;2023-04-24T05:16:31;1.63;;;0.98;;
18172;SDS011;9211;48.818;9.312;2023-04-24T05:18:58;2.15;;;0.90;;
18172;SDS011;9211;48.818;9.312;2023-04-24T05:21:30;1.90;;;1.00;;
18172;SDS011;9211;48.818;9.312;2023-04-24T05:23:57;1.75;;;1.00;;
18172;SDS011;9211;48.818;9.312;2023-04-24T05:26:41;1.50;;;1.00;;
18172;SDS011;9211;48.818;9.312;2023-04-24T05:29:10;1.33;;;0.85;;
18172;SDS011;9211;48.818;9.312;2023-04-24T05:31:37;2.30;;;0.87;;
18172;SDS011;9211;48.818;9.312;2023-04-24T05:34:04;2.15;;;1.02;;
18172;SDS011;9211;48.818;9.312;2023-04-24T05:36:31;2.15;;;1.08;;
18172;SDS011;9211;48.818;9.312;2023-04-24T05:38:58;2.50;;;0.90;;
18172;SDS011;9211;48.818;9.312;2023-04-24T05:41:25;2.33;;;0.90;;
18172;SDS011;9211;48.818;9.312;2023-04-24T05:43:54;1.50;;;1.05;;
18172;SDS011;9211;48.818;9.312;2023-04-24T05:46:21;1.70;;;0.90;;
18172;SDS011;9211;48.818;9.312;2023-04-24T05:48:48;2.50;;;1.10;;
18172;SDS011;9211;48.818;9.312;2023-04-24T05:51:16;2.30;;;0.90;;
18172;SDS011;9211;48.818;9.312;2023-04-24T05:53:43;2.17;;;0.80;;
18172;SDS011;9211;48.818;9.312;2023-04-24T05:56:10;1.20;;;0.87;;
18172;SDS011;9211;48.818;9.312;2023-04-24T05:58:38;1.55;;;0.88;;
18172;SDS011;9211;48.818;9.312;2023-04-24T06:01:07;1.77;;;0.77;;
18172;SDS011;9211;48.818;9.312;2023-04-24T06:03:36;2.63;;;1.00;;
18172;SDS011;9211;48.818;9.312;2023-04-24T06:06:05;1.55;;;0.90;;
18172;SDS011;9211;48.818;9.312;2023-04-24T06:08:33;2.00;;;1.00;;
18172;SDS011;9211;48.818;9.312;2023-04-24T06:11:01;1.38;;;0.90;;
18172;SDS011;9211;48.818;9.312;2023-04-24T06:13:28;1.42;;;1.00;;
18172;SDS011;9211;48.818;9.312;2023-04-24T06:16:16;1.30;;;0.90;;
18172;SDS011;9211;48.818;9.312;2023-04-24T06:18:51;2.58;;;1.00;;
18172;SDS011;9211;48.818;9.312;2023-04-24T06:21:19;1.58;;;0.90;;
18172;SDS011;9211;48.818;9.312;2023-04-24T06:23:46;2.63;;;1.00;;
18172;SDS011;9211;48.818;9.312;2023-04-24T06:26:14;1.98;;;1.10;;
18172;SDS011;9211;48.818;9.312;2023-04-24T06:28:41;1.77;;;1.00;;
18172;SDS011;9211;48.818;9.312;2023-04-24T06:31:08;2.20;;;0.98;;
18172;SDS011;9211;48.818;9.312;2023-04-24T06:33:36;3.42;;;1.40;;
18172;SDS011;9211;48.818;9.312;2023-04-24T06:36:04;1.95;;;1.30;;
18172;SDS011;9211;48.818;9.312;2023-04-24T06:38:31;2.03;;;1.23;;
18172;SDS011;9211;48.818;9.312;2023-04-24T06:40:59;3.60;;;1.50;;
18172;SDS011;9211;48.818;9.312;2023-04-24T06:43:26;2.85;;;1.17;;
18172;SDS011;9211;48.818;9.312;2023-04-24T06:45:53;3.28;;;1.20;;
18172;SDS011;9211;48.818;9.312;2023-04-24T06:48:20;3.00;;;1.38;;
18172;SDS011;9211;48.818;9.312;2023-04-24T06:50:48;2.23;;;1.27;;
18172;SDS011;9211;48.818;9.312;2023-04-24T06:53:15;4.00;;;1.55;;
18172;SDS011;9211;48.818;9.312;2023-04-24T06:55:42;2.60;;;1.30;;
18172;SDS011;9211;48.818;9.312;2023-04-24T06:58:11;3.57;;;1.23;;
18172;SDS011;9211;48.818;9.312;2023-04-24T07:00:38;3.42;;;1.60;;
18172;SDS011;9211;48.818;9.312;2023-04-24T07:03:06;2.83;;;1.40;;
18172;SDS011;9211;48.818;9.312;2023-04-24T07:05:33;3.07;;;1.37;;
18172;SDS011;9211;48.818;9.312;2023-04-24T07:08:01;3.40;;;1.50;;
18172;SDS011;9211;48.818;9.312;2023-04-24T07:10:29;3.38;;;1.67;;
18172;SDS011;9211;48.818;9.312;2023-04-24T07:12:56;2.90;;;1.30;;
18172;SDS011;9211;48.818;9.312;2023-04-24T07:15:23;2.97;;;1.40;;
18172;SDS011;9211;48.818;9.312;2023-04-24T07:17:50;3.35;;;1.58;;
18172;SDS011;9211;48.818;9.312;2023-04-24T07:20:17;2.67;;;1.50;;
18172;SDS011;9211;48.818;9.312;2023-04-24T07:22:44;2.60;;;1.40;;
18172;SDS011;9211;48.818;9.312;2023-04-24T07:25:12;2.65;;;1.50;;
18172;SDS011;9211;48.818;9.312;2023-04-24T07:27:39;2.92;;;1.30;;
18172;SDS011;9211;48.818;9.312;2023-04-24T07:30:07;3.55;;;1.50;;
18172;SDS011;9211;48.818;9.312;2023-04-24T07:32:34;2.50;;;1.38;;
18172;SDS011;9211;48.818;9.312;2023-04-24T07:35:01;3.72;;;1.55;;
18172;SDS011;9211;48.818;9.312;2023-04-24T07:37:28;3.45;;;1.60;;
18172;SDS011;9211;48.818;9.312;2023-04-24T07:39:55;2.53;;;1.30;;
18172;SDS011;9211;48.818;9.312;2023-04-24T07:42:23;2.15;;;1.30;;
18172;SDS011;9211;48.818;9.312;2023-04-24T07:44:50;3.20;;;1.30;;
18172;SDS011;9211;48.818;9.312;2023-04-24T07:47:17;2.43;;;1.10;;
18172;SDS011;9211;48.818;9.312;2023-04-24T07:49:44;2.60;;;1.13;;
18172;SDS011;9211;48.818;9.312;2023-04-24T07:52:11;1.83;;;1.00;;
18172;SDS011;9211;48.818;9.312;2023-04-24T07:54:38;3.28;;;1.15;;
18172;SDS011;9211;48.818;9.312;2023-04-24T07:57:05;1.60;;;1.00;;
18172;SDS011;9211;48.818;9.312;2023-04-24T07:59:34;3.35;;;1.10;;
18172;SDS011;9211;48.818;9.312;2023-04-24T08:02:01;2.50;;;1.00;;
18172;SDS011;9211;48.818;9.312;2023-04-24T08:04:28;2.13;;;1.13;;
18172;SDS011;9211;48.818;9.312;2023-04-24T08:06:55;1.73;;;1.10;;
18172;SDS011;9211;48.818;9.312;2023-04-24T08:09:22;2.40;;;1.10;;
18172;SDS011;9211;48.818;9.312;2023-04-24T08:11:49;3.10;;;1.00;;
18172;SDS011;9211;48.818;9.312;2023-04-24T08:14:17;3.17;;;1.10;;
18172;SDS011;9211;48.818;9.312;2023-04-24T08:16:47;1.88;;;1.00;;
18172;SDS011;9211;48.818;9.312;2023-04-24T08:19:14;2.50;;;1.00;;
18172;SDS011;9211;48.818;9.312;2023-04-24T08:21:41;3.85;;;1.08;;
18172;SDS011;9211;48.818;9.312;2023-04-24T08:24:08;2.72;;;1.00;;
18172;SDS011;9211;48.818;9.312;2023-04-24T08:26:35;3.60;;;1.20;;
18172;SDS011;9211;48.818;9.312;2023-04-24T08:29:02;4.32;;;1.20;;
18172;SDS011;9211;48.818;9.312;2023-04-24T08:31:31;1.70;;;1.20;;
18172;SDS011;9211;48.818;9.312;2023-04-24T08:34:00;2.30;;;1.10;;
18172;SDS011;9211;48.818;9.312;2023-04-24T08:36:27;2.70;;;1.27;;
18172;SDS011;9211;48.818;9.312;2023-04-24T08:38:58;3.75;;;1.10;;
18172;SDS011;9211;48.818;9.312;2023-04-24T08:41:26;4.97;;;1.27;;
18172;SDS011;9211;48.818;9.312;2023-04-24T08:43:53;2.08;;;1.02;;
18172;SDS011;9211;48.818;9.312;2023-04-24T08:46:23;3.72;;;1.30;;
18172;SDS011;9211;48.818;9.312;2023-04-24T08:48:51;3.60;;;1.20;;
18172;SDS011;9211;48.818;9.312;2023-04-24T08:51:20;3.63;;;1.30;;
18172;SDS011;9211;48.818;9.312;2023-04-24T08:53:47;4.15;;;1.10;;
18172;SDS011;9211;48.818;9.312;2023-04-24T08:56:15;3.10;;;1.10;;
18172;SDS011;9211;48.818;9.312;2023-04-24T08:58:42;4.23;;;1.47;;
18172;SDS011;9211;48.818;9.312;2023-04-24T09:01:10;2.40;;;1.20;;
18172;SDS011;9211;48.818;9.312;2023-04-24T09:03:38;3.90;;;1.30;;
18172;SDS011;9211;48.818;9.312;2023-04-24T09:06:06;3.80;;;1.20;;
18172;SDS011;9211;48.818;9.312;2023-04-24T09:08:35;2.88;;;1.25;;
18172;SDS011;9211;48.818;9.312;2023-04-24T09:11:02;3.40;;;1.00;;
18172;SDS011;9211;48.818;9.312;2023-04-24T09:13:30;4.20;;;1.30;;
18172;SDS011;9211;48.818;9.312;2023-04-24T09:15:58;2.42;;;1.17;;
18172;SDS011;9211;48.818;9.312;2023-04-24T09:18:25;2.97;;;1.20;;
18172;SDS011;9211;48.818;9.312;2023-04-24T09:21:02;3.63;;;1.20;;
18172;SDS011;9211;48.818;9.312;2023-04-24T09:23:31;4.18;;;1.25;;
18172;SDS011;9211;48.818;9.312;2023-04-24T09:26:01;3.22;;;1.13;;
18172;SDS011;9211;48.818;9.312;2023-04-24T09:28:32;2.80;;;1.20;;
18172;SDS011;9211;48.818;9.312;2023-04-24T09:31:02;2.58;;;1.20;;
18172;SDS011;9211;48.818;9.312;2023-04-24T09:33:30;2.22;;;1.23;;
18172;SDS011;9211;48.818;9.312;2023-04-24T09:35:57;4.10;;;1.05;;
18172;SDS011;9211;48.818;9.312;2023-04-24T09:38:32;2.08;;;1.00;;
18172;SDS011;9211;48.818;9.312;2023-04-24T09:41:02;4.72;;;1.15;;
18172;SDS011;9211;48.818;9.312;2023-04-24T09:43:31;1.87;;;1.00;;
18172;SDS011;9211;48.818;9.312;2023-04-24T09:45:58;3.05;;;1.00;;
18172;SDS011;9211;48.818;9.312;2023-04-24T09:48:30;2.90;;;1.07;;
18172;SDS011;9211;48.818;9.312;2023-04-24T09:50:58;1.50;;;1.00;;
18172;SDS011;9211;48.818;9.312;2023-04-24T09:53:27;2.30;;;1.40;;
18172;SDS011;9211;48.818;9.312;2023-04-24T09:55:54;2.10;;;1.10;;
18172;SDS011;9211;48.818;9.312;2023-04-24T09:58:25;1.95;;;1.20;;
18172;SDS011;9211;48.818;9.312;2023-04-24T10:00:53;2.90;;;1.40;;
18172;SDS011;9211;48.818;9.312;2023-04-24T10:03:23;2.65;;;1.20;;
18172;SDS011;9211;48.818;9.312;2023-04-24T10:05:52;4.90;;;1.20;;
18172;SDS011;9211;48.818;9.312;2023-04-24T10:08:19;2.00;;;1.23;;
18172;SDS011;9211;48.818;9.312;2023-04-24T10:10:47;1.73;;;1.00;;
18172;SDS011;9211;48.818;9.312;2023-04-24T10:13:14;2.00;;;1.10;;
18172;SDS011;9211;48.818;9.312;2023-04-24T10:15:44;2.03;;;1.10;;
18172;SDS011;9211;48.818;9.312;2023-04-24T10:18:14;2.10;;;1.00;;
18172;SDS011;9211;48.818;9.312;2023-04-24T10:20:45;1.80;;;0.98;;
18172;SDS011;9211;48.818;9.312;2023-04-24T10:23:13;3.40;;;1.00;;
18172;SDS011;9211;48.818;9.312;2023-04-24T10:25:40;2.00;;;1.00;;
18172;SDS011;9211;48.818;9.312;2023-04-24T10:28:07;1.42;;;1.00;;
18172;SDS011;9211;48.818;9.312;2023-04-24T10:30:34;2.75;;;0.90;;
18172;SDS011;9211;48.818;9.312;2023-04-24T10:33:03;2.15;;;1.00;;
18172;SDS011;9211;48.818;9.312;2023-04-24T10:35:34;1.95;;;0.90;;
18172;SDS011;9211;48.818;9.312;2023-04-24T10:38:05;1.70;;;1.00;;
18172;SDS011;9211;48.818;9.312;2023-04-24T10:40:34;1.80;;;1.10;;
18172;SDS011;9211;48.818;9.312;2023-04-24T10:43:02;1.55;;;0.95;;
18172;SDS011;9211;48.818;9.312;2023-04-24T10:45:31;3.33;;;0.93;;
18172;SDS011;9211;48.818;9.312;2023-04-24T10:47:59;1.85;;;1.05;;
18172;SDS011;9211;48.818;9.312;2023-04-24T10:50:29;1.50;;;0.90;;
18172;SDS011;9211;48.818;9.312;2023-04-24T10:53:12;2.47;;;1.13;;
18172;SDS011;9211;48.818;9.312;2023-04-24T10:55:41;2.50;;;1.10;;
18172;SDS011;9211;48.818;9.312;2023-04-24T10:58:10;2.60;;;1.33;;
18172;SDS011;9211;48.818;9.312;2023-04-24T11:00:38;1.98;;;1.23;;
18172;SDS011;9211;48.818;9.312;2023-04-24T11:03:06;1.90;;;1.02;;
18172;SDS011;9211;48.818;9.312;2023-04-24T11:05:50;1.85;;;1.10;;
18172;SDS011;9211;48.818;9.312;2023-04-24T11:08:26;2.30;;;1.13;;
18172;SDS011;9211;48.818;9.312;2023-04-24T11:10:59;2.00;;;1.10;;
18172;SDS011;9211;48.818;9.312;2023-04-24T11:13:31;3.35;;;1.15;;
18172;SDS011;9211;48.818;9.312;2023-04-24T11:16:34;2.60;;;1.10;;
18172;SDS011;9211;48.818;9.312;2023-04-24T11:19:05;2.22;;;1.10;;
18172;SDS011;9211;48.818;9.312;2023-04-24T11:21:42;2.80;;;1.10;;
18172;SDS011;9211;48.818;9.312;2023-04-24T11:24:30;2.08;;;1.05;;
18172;SDS011;9211;48.818;9.312;2023-04-24T11:26:59;2.15;;;1.27;;
18172;SDS011;9211;48.818;9.312;2023-04-24T11:29:38;2.10;;;1.10;;
18172;SDS011;9211;48.818;9.312;2023-04-24T11:32:16;4.07;;;1.30;;
18172;SDS011;9211;48.818;9.312;2023-04-24T11:34:48;3.75;;;1.25;;
18172;SDS011;9211;48.818;9.312;2023-04-24T11:37:17;3.35;;;1.20;;
18172;SDS011;9211;48.818;9.312;2023-04-24T11:39:45;1.65;;;1.23;;
18172;SDS011;9211;48.818;9.312;2023-04-24T11:42:13;2.22;;;1.10;;
18172;SDS011;9211;48.818;9.312;2023-04-24T11:44:41;3.37;;;1.43;;
18172;SDS011;9211;48.818;9.312;2023-04-24T11:47:09;1.85;;;1.10;;
18172;SDS011;9211;48.818;9.312;2023-04-24T11:49:36;4.43;;;1.20;;
18172;SDS011;9211;48.818;9.312;2023-04-24T11:52:03;2.30;;;1.30;;
18172;SDS011;9211;48.818;9.312;2023-04-24T11:54:32;3.05;;;1.15;;
18172;SDS011;9211;48.818;9.312;2023-04-24T11:56:59;2.45;;;1.20;;
18172;SDS011;9211;48.818;9.312;2023-04-24T11:59:34;2.70;;;1.20;;
18172;SDS011;9211;48.818;9.312;2023-04-24T12:02:02;2.40;;;1.00;;
18172;SDS011;9211;48.818;9.312;2023-04-24T12:04:37;3.83;;;1.27;;
18172;SDS011;9211;48.818;9.312;2023-04-24T12:07:05;1.70;;;1.15;;
18172;SDS011;9211;48.818;9.312;2023-04-24T12:09:41;2.25;;;1.20;;
18172;SDS011;9211;48.818;9.312;2023-04-24T12:12:08;1.63;;;1.10;;
18172;SDS011;9211;48.818;9.312;2023-04-24T12:17:23;3.17;;;1.02;;
18172;SDS011;9211;48.818;9.312;2023-04-24T12:19:51;3.40;;;1.10;;
18172;SDS011;9211;48.818;9.312;2023-04-24T12:22:18;3.00;;;1.08;;
18172;SDS011;9211;48.818;9.312;2023-04-24T12:24:56;2.67;;;1.10;;
18172;SDS011;9211;48.818;9.312;2023-04-24T12:27:29;2.45;;;1.30;;
18172;SDS011;9211;48.818;9.312;2023-04-24T12:29:58;1.95;;;1.13;;
18172;SDS011;9211;48.818;9.312;2023-04-24T12:32:26;2.63;;;1.10;;
18172;SDS011;9211;48.818;9.312;2023-04-24T12:34:54;1.90;;;1.05;;
18172;SDS011;9211;48.818;9.312;2023-04-24T12:37:22;1.83;;;1.00;;
18172;SDS011;9211;48.818;9.312;2023-04-24T12:40:01;1.30;;;0.93;;
18172;SDS011;9211;48.818;9.312;2023-04-24T12:42:30;1.98;;;0.90;;
18172;SDS011;9211;48.818;9.312;2023-04-24T12:44:57;1.38;;;1.02;;
18172;SDS011;9211;48.818;9.312;2023-04-24T12:47:26;3.42;;;1.15;;
18172;SDS011;9211;48.818;9.312;2023-04-24T12:49:53;1.95;;;1.10;;
18172;SDS011;9211;48.818;9.312;2023-04-24T12:52:20;1.75;;;1.00;;
18172;SDS011;9211;48.818;9.312;2023-04-24T12:54:48;2.13;;;1.15;;
18172;SDS011;9211;48.818;9.312;2023-04-24T12:57:17;3.13;;;1.35;;
18172;SDS011;9211;48.818;9.312;2023-04-24T12:59:44;2.17;;;1.10;;
18172;SDS011;9211;48.818;9.312;2023-04-24T13:02:11;2.45;;;1.20;;
18172;SDS011;9211;48.818;9.312;2023-04-24T13:04:38;1.83;;;1.23;;
18172;SDS011;9211;48.818;9.312;2023-04-24T13:07:05;2.45;;;1.30;;
18172;SDS011;9211;48.818;9.312;2023-04-24T13:09:34;1.92;;;1.20;;
18172;SDS011;9211;48.818;9.312;2023-04-24T13:12:01;2.47;;;1.30;;
18172;SDS011;9211;48.818;9.312;2023-04-24T13:14:29;1.97;;;1.30;;
18172;SDS011;9211;48.818;9.312;2023-04-24T13:16:56;2.33;;;1.42;;
18172;SDS011;9211;48.818;9.312;2023-04-24T13:19:23;1.73;;;1.30;;
18172;SDS011;9211;48.818;9.312;2023-04-24T13:21:51;2.50;;;1.20;;
18172;SDS011;9211;48.818;9.312;2023-04-24T13:24:18;2.90;;;1.40;;
18172;SDS011;9211;48.818;9.312;2023-04-24T13:26:45;2.10;;;1.40;;
18172;SDS011;9211;48.818;9.312;2023-04-24T13:29:12;2.72;;;1.40;;
18172;SDS011;9211;48.818;9.312;2023-04-24T13:31:40;2.17;;;1.27;;
18172;SDS011;9211;48.818;9.312;2023-04-24T13:34:07;2.53;;;1.20;;
18172;SDS011;9211;48.818;9.312;2023-04-24T13:36:34;3.53;;;1.33;;
18172;SDS011;9211;48.818;9.312;2023-04-24T13:39:01;4.15;;;1.33;;
18172;SDS011;9211;48.818;9.312;2023-04-24T13:41:29;2.13;;;1.40;;
18172;SDS011;9211;48.818;9.312;2023-04-24T13:43:56;2.97;;;1.58;;
18172;SDS011;9211;48.818;9.312;2023-04-24T13:46:23;3.17;;;1.40;;
18172;SDS011;9211;48.818;9.312;2023-04-24T13:48:51;2.40;;;1.40;;
18172;SDS011;9211;48.818;9.312;2023-04-24T13:51:18;2.55;;;1.63;;
18172;SDS011;9211;48.818;9.312;2023-04-24T13:53:45;4.05;;;1.23;;
18172;SDS011;9211;48.818;9.312;2023-04-24T13:56:12;2.90;;;1.50;;
18172;SDS011;9211;48.818;9.312;2023-04-24T13:58:39;3.30;;;1.50;;
18172;SDS011;9211;48.818;9.312;2023-04-24T14:01:06;1.92;;;1.40;;
18172;SDS011;9211;48.818;9.312;2023-04-24T14:03:33;3.70;;;1.60;;
18172;SDS011;9211;48.818;9.312;2023-04-24T14:06:02;1.90;;;1.20;;
18172;SDS011;9211;48.818;9.312;2023-04-24T14:08:29;2.25;;;1.20;;
18172;SDS011;9211;48.818;9.312;2023-04-24T14:10:56;2.22;;;1.30;;
18172;SDS011;9211;48.818;9.312;2023-04-24T14:13:23;2.10;;;1.10;;
18172;SDS011;9211;48.818;9.312;2023-04-24T14:15:52;2.75;;;1.30;;
18172;SDS011;9211;48.818;9.312;2023-04-24T14:18:19;3.73;;;1.10;;
18172;SDS011;9211;48.818;9.312;2023-04-24T14:20:46;1.97;;;1.10;;
18172;SDS011;9211;48.818;9.312;2023-04-24T14:23:15;2.13;;;1.20;;
18172;SDS011;9211;48.818;9.312;2023-04-24T14:25:47;2.35;;;1.20;;
18172;SDS011;9211;48.818;9.312;2023-04-24T14:28:16;2.40;;;1.20;;
18172;SDS011;9211;48.818;9.312;2023-04-24T14:30:46;1.92;;;1.30;;
18172;SDS011;9211;48.818;9.312;2023-04-24T14:33:14;2.25;;;1.30;;
18172;SDS011;9211;48.818;9.312;2023-04-24T14:35:41;1.65;;;1.25;;
18172;SDS011;9211;48.818;9.312;2023-04-24T14:38:08;2.25;;;1.40;;
18172;SDS011;9211;48.818;9.312;2023-04-24T14:40:37;1.70;;;1.20;;
18172;SDS011;9211;48.818;9.312;2023-04-24T14:43:05;2.65;;;1.20;;
18172;SDS011;9211;48.818;9.312;2023-04-24T14:45:32;1.63;;;1.00;;
18172;SDS011;9211;48.818;9.312;2023-04-24T14:47:59;2.00;;;1.20;;
18172;SDS011;9211;48.818;9.312;2023-04-24T14:50:26;2.42;;;1.40;;
18172;SDS011;9211;48.818;9.312;2023-04-24T14:52:53;1.73;;;1.20;;
18172;SDS011;9211;48.818;9.312;2023-04-24T14:55:22;1.73;;;1.20;;
18172;SDS011;9211;48.818;9.312;2023-04-24T14:57:50;2.00;;;1.17;;
18172;SDS011;9211;48.818;9.312;2023-04-24T15:00:18;1.90;;;1.20;;
18172;SDS011;9211;48.818;9.312;2023-04-24T15:02:45;2.13;;;1.10;;
18172;SDS011;9211;48.818;9.312;2023-04-24T15:05:15;3.78;;;1.10;;
18172;SDS011;9211;48.818;9.312;2023-04-24T15:07:42;1.98;;;1.23;;
18172;SDS011;9211;48.818;9.312;2023-04-24T15:10:10;2.90;;;1.20;;
18172;SDS011;9211;48.818;9.312;2023-04-24T15:12:37;1.70;;;1.23;;
18172;SDS011;9211;48.818;9.312;2023-04-24T15:15:07;3.72;;;1.30;;